Time;durP1;ratioP1;P1;durP2;ratioP2;P2;SDS_P1;SDS_P2;PMS_P1;PMS_P2;Temp;Humidity;BMP_temperature;BMP_pressure;BME280_temperature;BME280_humidity;BME280_pressure;Samples;Min_cycle;Max_cycle;Signal;HPM_P1;HPM_P2
2022/11/08 00:01:31;;;;;;;2.27;1.30;;;;;;;8.40;89.91;95518.41;4979200;28;20236;-81
2022/11/08 00:04:04;;;;;;;3.30;1.70;;;;;;;8.45;89.60;95524.00;4965713;28;20203;-81
2022/11/08 00:14:42;;;;;;;5.60;1.40;;;;;;;8.54;88.18;95522.34;4967360;28;20577;-81
2022/11/08 00:17:08;;;;;;;2.97;1.30;;;;;;;8.51;88.46;95517.47;4971108;28;20189;-82
2022/11/08 00:19:33;;;;;;;3.87;1.20;;;;;;;8.49;87.87;95519.38;4955579;28;20212;-81
2022/11/08 00:21:58;;;;;;;2.73;1.30;;;;;;;8.52;87.55;95514.75;4973276;28;20213;-81
2022/11/08 00:24:24;;;;;;;2.20;1.10;;;;;;;8.47;87.01;95513.50;4972873;28;20204;-81
2022/11/08 00:26:49;;;;;;;3.27;1.30;;;;;;;8.45;87.51;95512.81;4965087;28;20255;-82
2022/11/08 00:29:14;;;;;;;3.30;1.23;;;;;;;8.41;87.81;95509.69;4971094;28;20710;-82
2022/11/08 00:31:40;;;;;;;2.07;1.40;;;;;;;8.27;88.15;95501.47;4969429;28;20209;-81
2022/11/08 00:34:05;;;;;;;3.03;1.30;;;;;;;8.24;88.55;95507.75;4975510;28;20193;-82
2022/11/08 00:36:31;;;;;;;2.00;1.30;;;;;;;8.30;88.28;95511.53;4964159;28;20232;-81
2022/11/08 00:38:56;;;;;;;2.00;1.20;;;;;;;8.18;88.29;95505.69;4959633;28;20192;-81
2022/11/08 00:41:21;;;;;;;2.10;1.30;;;;;;;8.19;88.32;95502.94;4978118;28;20197;-81
2022/11/08 00:43:47;;;;;;;4.17;1.70;;;;;;;8.23;88.11;95500.94;4978505;28;20188;-81
2022/11/08 00:46:12;;;;;;;3.03;1.50;;;;;;;8.30;87.60;95498.59;4970487;28;20186;-81
2022/11/08 00:48:37;;;;;;;4.00;1.50;;;;;;;8.29;87.42;95502.16;4971297;28;20189;-82
2022/11/08 00:51:04;;;;;;;2.87;1.37;;;;;;;8.29;87.13;95497.78;4975120;28;20271;-82
2022/11/08 00:53:30;;;;;;;7.80;1.60;;;;;;;8.29;86.87;95491.78;4967658;28;20240;-82
2022/11/08 00:56:04;;;;;;;3.00;1.47;;;;;;;8.34;86.53;95489.63;4970172;28;20208;-81
2022/11/08 00:58:29;;;;;;;4.50;1.57;;;;;;;8.26;86.58;95484.31;4975189;28;20531;-81
2022/11/08 01:00:55;;;;;;;2.43;1.03;;;;;;;8.34;86.07;95484.47;4955179;28;20211;-81
2022/11/08 01:03:22;;;;;;;2.80;1.33;;;;;;;8.37;85.58;95476.44;4981365;28;20216;-81
2022/11/08 01:05:49;;;;;;;1.93;1.30;;;;;;;8.36;85.24;95480.00;4970354;28;20559;-81
2022/11/08 01:08:14;;;;;;;3.80;1.20;;;;;;;8.32;85.55;95476.03;4964398;28;20271;-82
2022/11/08 01:10:41;;;;;;;3.80;1.20;;;;;;;8.34;85.48;95482.69;4970705;28;20303;-82
2022/11/08 01:13:07;;;;;;;3.90;1.60;;;;;;;8.29;86.17;95482.25;4959503;28;20181;-82
2022/11/08 01:15:40;;;;;;;3.80;1.60;;;;;;;8.30;86.00;95481.31;4981462;28;20195;-81
2022/11/08 01:18:07;;;;;;;3.40;1.70;;;;;;;8.33;85.81;95483.66;4966626;28;20189;-82
2022/11/08 01:20:37;;;;;;;3.23;2.40;;;;;;;8.27;85.46;95489.34;4970567;28;20208;-82
2022/11/08 01:23:02;;;;;;;2.10;1.50;;;;;;;8.29;85.83;95481.44;4974629;28;20657;-81
2022/11/08 01:25:27;;;;;;;6.37;1.70;;;;;;;8.26;85.86;95484.31;4954158;28;20211;-81
2022/11/08 01:27:52;;;;;;;5.03;2.43;;;;;;;8.24;86.42;95480.09;4981474;28;20198;-82
2022/11/08 01:30:18;;;;;;;2.03;1.67;;;;;;;8.14;86.86;95479.28;4968585;28;20211;-81
2022/11/08 01:32:43;;;;;;;3.77;2.03;;;;;;;8.11;86.62;95471.75;4975328;28;20196;-81
2022/11/08 01:35:08;;;;;;;3.07;1.93;;;;;;;8.18;86.14;95461.69;4947377;28;20188;-81
2022/11/08 01:37:34;;;;;;;4.50;1.90;;;;;;;8.14;86.00;95460.34;4968459;28;20633;-82
2022/11/08 01:39:59;;;;;;;3.77;1.67;;;;;;;8.06;86.82;95461.03;4974166;28;20196;-81
2022/11/08 01:42:28;;;;;;;4.50;2.17;;;;;;;8.07;86.69;95456.66;4979747;28;20224;-81
2022/11/08 01:45:38;;;;;;;4.10;2.03;;;;;;;7.93;87.36;95450.91;4971268;28;20667;-81
2022/11/08 01:48:04;;;;;;;3.27;1.77;;;;;;;7.95;87.23;95454.22;4956558;28;20209;-82
2022/11/08 01:50:29;;;;;;;3.03;1.60;;;;;;;7.90;87.38;95445.19;4968822;28;20243;-81
2022/11/08 01:52:54;;;;;;;3.27;1.77;;;;;;;7.95;87.04;95443.00;4980125;28;20200;-81
2022/11/08 01:55:34;;;;;;;5.00;2.17;;;;;;;7.99;86.68;95439.22;4968091;28;20199;-82
2022/11/08 01:58:06;;;;;;;4.53;1.57;;;;;;;7.92;86.78;95433.78;4985568;28;20280;-81
2022/11/08 02:00:32;;;;;;;2.47;1.97;;;;;;;7.92;86.24;95433.78;4966225;28;20368;-82
2022/11/08 02:03:00;;;;;;;2.93;1.83;;;;;;;7.87;87.14;95432.56;4986938;28;20275;-81
2022/11/08 02:05:26;;;;;;;2.50;2.10;;;;;;;7.85;87.46;95424.09;4959340;28;20199;-81
2022/11/08 02:08:17;;;;;;;5.57;2.13;;;;;;;7.87;86.90;95424.78;4980372;28;20212;-80
2022/11/08 02:10:44;;;;;;;5.40;1.87;;;;;;;7.85;86.97;95418.91;5012640;28;20276;-80
2022/11/08 02:13:24;;;;;;;2.80;2.00;;;;;;;7.95;86.71;95419.75;5014654;28;20193;-81
2022/11/08 02:15:50;;;;;;;3.23;2.27;;;;;;;7.82;87.18;95414.03;4982760;28;20180;-81
2022/11/08 02:18:16;;;;;;;3.97;2.43;;;;;;;7.84;87.02;95406.94;4997729;28;20185;-81
2022/11/08 02:21:11;;;;;;;5.73;2.30;;;;;;;7.87;86.40;95407.50;4993871;28;20304;-82
2022/11/08 02:23:49;;;;;;;3.10;2.47;;;;;;;7.81;87.26;95397.69;4979369;28;20220;-82
2022/11/08 02:26:15;;;;;;;4.00;2.20;;;;;;;7.75;87.71;95397.41;4950038;28;20774;-82
2022/11/08 02:28:43;;;;;;;5.33;2.40;;;;;;;7.77;87.04;95385.16;4965923;28;20264;-82
2022/11/08 02:31:09;;;;;;;5.07;2.60;;;;;;;7.76;87.54;95391.28;4988207;28;21004;-82
2022/11/08 02:33:35;;;;;;;6.97;2.90;;;;;;;7.81;87.50;95396.88;4974487;28;20197;-82
2022/11/08 02:36:01;;;;;;;5.17;2.23;;;;;;;7.83;87.14;95398.38;4966225;28;20558;-82
2022/11/08 02:38:26;;;;;;;5.30;2.60;;;;;;;7.80;87.48;95397.84;4972167;28;20188;-82
2022/11/08 02:40:53;;;;;;;4.00;2.20;;;;;;;7.80;87.36;95401.25;4978194;28;20696;-82
2022/11/08 02:43:19;;;;;;;6.33;2.63;;;;;;;7.87;86.81;95396.34;4968674;28;20633;-82
2022/11/08 02:45:45;;;;;;;3.53;2.03;;;;;;;7.91;86.44;95388.19;4968035;28;20193;-82
2022/11/08 02:48:11;;;;;;;4.53;2.37;;;;;;;7.89;86.83;95386.69;4967143;28;20189;-82
2022/11/08 02:50:37;;;;;;;3.43;2.50;;;;;;;7.97;86.17;95391.19;4981872;28;20212;-82
2022/11/08 02:53:02;;;;;;;4.20;2.37;;;;;;;7.97;86.53;95391.19;4969096;28;20546;-82
2022/11/08 02:55:28;;;;;;;3.87;2.13;;;;;;;7.92;86.50;95382.06;4972266;28;20180;-82
2022/11/08 02:57:53;;;;;;;4.27;2.70;;;;;;;7.91;86.54;95380.44;4978769;28;20563;-81
2022/11/08 03:00:18;;;;;;;3.77;2.30;;;;;;;7.98;86.15;95377.31;4982353;28;20243;-82
2022/11/08 03:02:44;;;;;;;4.00;2.40;;;;;;;8.00;85.79;95376.22;4973002;28;20193;-81
2022/11/08 03:05:09;;;;;;;5.53;2.40;;;;;;;7.98;85.86;95379.88;4980195;28;20187;-81
2022/11/08 03:07:35;;;;;;;3.13;2.53;;;;;;;7.95;86.00;95384.38;4978376;28;20181;-82
2022/11/08 03:10:00;;;;;;;5.73;2.40;;;;;;;7.93;86.16;95381.09;4986849;28;20204;-81
2022/11/08 03:12:25;;;;;;;6.83;2.93;;;;;;;7.88;86.42;95390.22;4985589;28;20209;-82
2022/11/08 03:14:50;;;;;;;2.77;2.20;;;;;;;7.81;86.28;95386.53;4982349;28;20204;-82
2022/11/08 03:17:16;;;;;;;6.30;2.60;;;;;;;7.81;85.82;95389.94;4972904;28;20188;-82
2022/11/08 03:19:41;;;;;;;3.37;2.40;;;;;;;7.81;85.85;95399.47;4979146;28;20201;-82
2022/11/08 03:22:06;;;;;;;3.53;2.20;;;;;;;7.81;86.05;95396.88;4977560;28;20772;-82
2022/11/08 03:24:32;;;;;;;3.07;2.00;;;;;;;7.84;85.58;95404.38;4979327;28;20653;-82
2022/11/08 03:26:58;;;;;;;3.80;2.50;;;;;;;7.86;85.34;95392.13;4973268;28;20217;-82
2022/11/08 03:29:23;;;;;;;2.63;2.10;;;;;;;7.76;85.38;95391.28;4945134;28;20192;-82
2022/11/08 03:31:48;;;;;;;3.53;2.13;;;;;;;7.79;85.59;95383.28;4975119;28;20270;-82
2022/11/08 03:34:14;;;;;;;4.27;2.17;;;;;;;7.74;85.59;95385.44;4980797;28;20189;-82
2022/11/08 03:36:39;;;;;;;6.10;2.47;;;;;;;7.71;85.53;95376.19;4983937;28;20220;-82
2022/11/08 03:39:04;;;;;;;3.43;2.10;;;;;;;7.67;85.45;95374.81;4973350;28;20201;-82
2022/11/08 03:41:29;;;;;;;5.33;1.97;;;;;;;7.63;86.18;95374.28;4964965;28;20204;-81
2022/11/08 03:43:55;;;;;;;3.40;2.20;;;;;;;7.64;85.66;95372.50;4971489;28;20287;-82
2022/11/08 03:46:20;;;;;;;3.40;1.93;;;;;;;7.50;86.50;95384.03;4961863;28;20193;-82
2022/11/08 03:48:45;;;;;;;3.27;1.80;;;;;;;7.52;86.33;95381.34;4977392;28;20228;-82
2022/11/08 03:51:11;;;;;;;5.10;2.27;;;;;;;7.51;86.45;95377.94;4973587;28;20220;-82
2022/11/08 03:53:36;;;;;;;3.00;2.10;;;;;;;7.55;85.32;95371.53;4973905;28;20675;-82
2022/11/08 03:56:01;;;;;;;2.30;1.70;;;;;;;7.49;85.50;95374.66;4971940;28;20674;-82
2022/11/08 03:58:27;;;;;;;4.67;1.77;;;;;;;7.47;86.50;95378.31;4978582;28;20248;-82
2022/11/08 04:00:52;;;;;;;1.93;1.63;;;;;;;7.56;85.58;95370.59;4971306;28;20213;-82
2022/11/08 04:03:17;;;;;;;4.00;1.70;;;;;;;7.55;85.36;95371.53;4975806;28;20222;-82
2022/11/08 04:05:43;;;;;;;3.00;1.87;;;;;;;7.58;85.06;95363.50;4972116;28;20192;-82
2022/11/08 04:08:08;;;;;;;3.00;1.60;;;;;;;7.58;84.95;95363.50;4971597;28;20243;-82
2022/11/08 04:10:33;;;;;;;2.13;1.67;;;;;;;7.61;85.06;95362.44;4979962;28;20236;-82
2022/11/08 04:15:45;;;;;;;2.17;1.50;;;;;;;7.61;84.91;95358.09;4965029;28;20686;-83
2022/11/08 04:23:38;;;;;;;3.67;1.60;;;;;;;7.56;84.67;95351.69;4968035;28;20198;-82
2022/11/08 04:26:07;;;;;;;3.13;1.77;;;;;;;7.63;84.69;95355.38;4964676;28;20560;-82
2022/11/08 04:28:35;;;;;;;3.10;1.50;;;;;;;7.60;84.17;95350.47;4978275;28;20192;-82
2022/11/08 04:31:03;;;;;;;1.90;1.63;;;;;;;7.58;84.53;95350.59;4958240;28;20220;-82
2022/11/08 04:33:28;;;;;;;2.33;1.77;;;;;;;7.66;83.86;95344.75;4964819;28;20604;-82
2022/11/08 04:35:53;;;;;;;2.60;1.50;;;;;;;7.65;83.64;95343.94;4969604;28;20291;-82
2022/11/08 04:38:19;;;;;;;3.60;1.63;;;;;;;7.63;83.96;95339.88;4944224;28;20654;-82
2022/11/08 04:40:45;;;;;;;2.47;1.60;;;;;;;7.62;83.62;95333.88;4942552;28;20204;-82
2022/11/08 04:43:11;;;;;;;1.70;1.50;;;;;;;7.66;83.38;95340.41;4972145;28;20188;-82
2022/11/08 04:45:36;;;;;;;1.63;1.43;;;;;;;7.70;82.81;95332.41;4958525;28;20186;-82
2022/11/08 04:48:01;;;;;;;3.13;1.73;;;;;;;7.67;83.22;95318.78;4961219;28;20280;-82
2022/11/08 04:50:27;;;;;;;4.57;1.60;;;;;;;7.69;82.96;95335.94;4979858;28;20243;-82
2022/11/08 04:52:54;;;;;;;4.73;1.80;;;;;;;7.65;83.32;95337.97;4982047;28;20200;-82
2022/11/08 04:55:20;;;;;;;3.63;1.37;;;;;;;7.73;82.73;95329.53;4968006;28;20721;-82
2022/11/08 04:57:46;;;;;;;2.00;1.33;;;;;;;7.81;81.94;95327.91;4943250;28;20197;-81
2022/11/08 05:00:12;;;;;;;2.50;1.67;;;;;;;7.81;81.93;95324.50;4979840;28;20264;-82
2022/11/08 05:02:37;;;;;;;2.50;1.50;;;;;;;7.74;82.42;95321.63;4971779;28;20602;-82
2022/11/08 05:05:03;;;;;;;1.77;1.40;;;;;;;7.77;82.43;95317.97;4972001;28;20244;-81
2022/11/08 05:07:28;;;;;;;3.83;1.50;;;;;;;7.76;82.43;95316.31;4980672;28;20691;-82
2022/11/08 05:09:54;;;;;;;2.03;1.50;;;;;;;7.79;82.39;95313.50;4972046;28;20204;-82
2022/11/08 05:12:20;;;;;;;3.80;1.67;;;;;;;7.78;82.36;95315.25;4982869;28;20241;-81
2022/11/08 05:14:45;;;;;;;2.00;1.40;;;;;;;7.81;82.08;95311.56;4972486;28;20878;-81
2022/11/08 05:17:10;;;;;;;1.63;1.43;;;;;;;7.80;81.91;95309.94;4971409;28;20196;-80
2022/11/08 05:25:04;;;;;;;1.80;1.30;;;;;;;7.76;81.78;95311.97;4971025;28;20259;-82
2022/11/08 05:27:29;;;;;;;3.30;2.03;;;;;;;7.87;81.36;95311.03;4957062;28;20197;-81
2022/11/08 05:29:54;;;;;;;3.13;1.77;;;;;;;7.88;81.00;95308.31;4975912;28;20213;-81
2022/11/08 05:32:19;;;;;;;5.40;4.10;;;;;;;7.84;81.03;95306.94;4971804;28;20256;-82
2022/11/08 05:34:45;;;;;;;3.30;2.93;;;;;;;7.83;80.93;95312.25;4977830;28;20187;-81
2022/11/08 05:37:10;;;;;;;3.57;2.27;;;;;;;7.85;80.90;95312.94;4981012;28;20196;-80
2022/11/08 05:39:36;;;;;;;6.93;2.93;;;;;;;7.85;80.72;95302.59;4945548;28;20181;-81
2022/11/08 05:42:03;;;;;;;5.43;2.53;;;;;;;7.87;80.71;95305.88;4969260;28;20204;-81
2022/11/08 05:44:28;;;;;;;4.20;2.90;;;;;;;7.94;80.08;95304.34;4968378;28;20188;-80
2022/11/08 05:46:53;;;;;;;4.00;2.93;;;;;;;7.92;80.35;95301.09;4966701;28;20589;-82
2022/11/08 05:49:19;;;;;;;3.23;2.17;;;;;;;7.88;80.13;95299.75;4966645;28;20201;-82
2022/11/08 05:51:44;;;;;;;2.57;2.10;;;;;;;7.89;79.96;95293.63;4948794;28;20224;-82
2022/11/08 05:54:11;;;;;;;2.03;1.60;;;;;;;7.90;79.81;95293.47;4961861;28;20184;-82
2022/11/08 05:56:37;;;;;;;2.97;1.80;;;;;;;7.86;80.24;95292.13;4973839;28;20197;-81
2022/11/08 05:59:02;;;;;;;2.30;1.43;;;;;;;7.94;79.98;95286.25;4969362;28;20201;-82
2022/11/08 06:01:28;;;;;;;2.77;1.70;;;;;;;7.88;79.81;95286.81;4979545;28;20201;-81
2022/11/08 06:03:53;;;;;;;4.27;1.60;;;;;;;7.86;79.89;95275.78;4975893;28;20197;-81
2022/11/08 06:06:20;;;;;;;2.73;1.80;;;;;;;7.87;80.08;95282.59;4979368;28;20249;-81
2022/11/08 06:08:45;;;;;;;5.17;2.33;;;;;;;7.86;80.13;95286.97;4950062;28;20223;-81
2022/11/08 06:11:15;;;;;;;2.33;1.40;;;;;;;7.82;80.46;95289.94;4949972;28;20208;-80
2022/11/08 06:13:41;;;;;;;2.20;1.50;;;;;;;7.81;79.99;95288.31;4955781;28;20197;-81
2022/11/08 06:16:08;;;;;;;2.43;1.50;;;;;;;7.86;80.07;95284.38;4975482;28;20247;-79
2022/11/08 06:18:34;;;;;;;2.57;1.80;;;;;;;7.91;79.50;95283.94;4960621;28;20197;-79
2022/11/08 06:21:01;;;;;;;2.70;1.93;;;;;;;7.98;79.03;95272.09;4939563;28;20226;-80
2022/11/08 06:23:26;;;;;;;3.97;2.73;;;;;;;8.01;79.00;95278.75;4961030;28;20193;-80
2022/11/08 06:25:52;;;;;;;4.37;3.20;;;;;;;7.99;78.91;95272.91;4969592;28;20272;-80
2022/11/08 06:28:17;;;;;;;2.00;1.77;;;;;;;8.02;78.72;95277.81;4976301;28;20192;-80
2022/11/08 06:30:45;;;;;;;1.90;1.30;;;;;;;8.05;78.43;95272.38;4972877;28;20229;-80
2022/11/08 06:33:11;;;;;;;2.63;1.67;;;;;;;8.05;78.44;95274.97;4976855;28;20661;-80
2022/11/08 06:35:36;;;;;;;3.00;1.80;;;;;;;8.12;78.31;95274.25;4975815;28;20201;-80
2022/11/08 06:38:02;;;;;;;2.13;1.40;;;;;;;8.16;77.69;95278.19;4973503;28;20632;-79
2022/11/08 06:40:28;;;;;;;1.77;1.40;;;;;;;8.15;77.66;95275.75;4947015;28;20205;-80
2022/11/08 06:42:53;;;;;;;4.10;1.60;;;;;;;8.25;77.46;95281.72;4972386;28;20208;-80
2022/11/08 06:45:19;;;;;;;3.10;1.73;;;;;;;8.28;77.43;95285.78;4975228;28;20197;-81
2022/11/08 06:47:44;;;;;;;2.30;1.60;;;;;;;8.41;77.12;95281.16;4970634;28;20208;-79
2022/11/08 06:50:09;;;;;;;2.13;1.60;;;;;;;8.49;76.53;95292.44;4973240;28;20208;-79
2022/11/08 06:52:35;;;;;;;3.50;1.40;;;;;;;8.49;76.42;95296.81;4963549;28;20201;-79
2022/11/08 06:55:00;;;;;;;1.73;1.50;;;;;;;8.56;75.97;95297.84;4975439;28;20193;-79
2022/11/08 06:57:25;;;;;;;3.03;1.67;;;;;;;8.51;76.20;95297.47;4951295;28;20199;-81
2022/11/08 06:59:51;;;;;;;1.97;1.40;;;;;;;8.45;76.04;95292.84;4983387;28;20642;-82
2022/11/08 07:02:16;;;;;;;4.60;1.70;;;;;;;8.49;75.98;95297.63;4965979;28;20200;-83
2022/11/08 07:04:41;;;;;;;2.53;1.47;;;;;;;8.57;75.79;95296.94;4984519;28;20188;-78
2022/11/08 07:07:06;;;;;;;1.90;1.53;;;;;;;8.62;75.47;95286.94;4973386;28;20200;-79
2022/11/08 07:09:32;;;;;;;2.87;1.90;;;;;;;8.56;76.02;95291.88;4966873;28;20282;-79
2022/11/08 07:11:57;;;;;;;1.87;1.40;;;;;;;8.60;75.37;95291.47;4950974;28;20248;-79
2022/11/08 07:14:22;;;;;;;2.97;1.87;;;;;;;8.52;75.79;95283.59;4966938;28;20224;-79
2022/11/08 07:16:48;;;;;;;2.07;1.43;;;;;;;8.50;75.80;95288.91;4970593;28;20203;-79
2022/11/08 07:19:13;;;;;;;3.23;1.47;;;;;;;8.48;75.78;95285.66;4956809;28;20189;-79
2022/11/08 07:21:38;;;;;;;1.43;1.23;;;;;;;8.61;75.58;95284.50;4963004;28;20197;-77
2022/11/08 07:24:04;;;;;;;2.20;1.60;;;;;;;8.56;75.47;95287.50;4978547;28;20567;-78
2022/11/08 07:26:29;;;;;;;2.63;1.60;;;;;;;8.57;74.92;95283.13;4982858;28;20192;-78
2022/11/08 07:28:54;;;;;;;1.97;1.40;;;;;;;8.64;75.25;95272.09;4969281;28;20248;-77
2022/11/08 07:31:20;;;;;;;2.70;1.67;;;;;;;8.75;74.70;95271.91;4977427;28;20279;-80
2022/11/08 07:33:46;;;;;;;1.87;1.70;;;;;;;8.82;74.63;95272.16;4985546;28;20196;-80
2022/11/08 07:36:11;;;;;;;1.63;1.23;;;;;;;8.86;74.42;95254.56;4953685;28;20215;-79
2022/11/08 07:38:36;;;;;;;2.30;1.60;;;;;;;9.02;73.24;95272.88;4982852;28;20339;-79
2022/11/08 07:41:01;;;;;;;1.43;1.33;;;;;;;8.91;73.58;95271.28;4987117;28;20204;-79
2022/11/08 07:43:28;;;;;;;3.17;1.67;;;;;;;9.17;73.23;95262.81;4957145;28;20184;-79
2022/11/08 07:45:58;;;;;;;2.23;1.40;;;;;;;9.34;72.55;95273.22;4974451;28;20197;-79
2022/11/08 07:48:24;;;;;;;1.80;1.40;;;;;;;9.47;72.13;95269.47;4968902;28;20193;-79
2022/11/08 07:50:50;;;;;;;2.40;1.47;;;;;;;9.67;71.36;95278.72;4955417;28;20629;-79
2022/11/08 07:53:15;;;;;;;2.50;1.30;;;;;;;9.90;70.71;95266.13;4952674;28;20764;-79
2022/11/08 07:55:40;;;;;;;1.97;1.60;;;;;;;9.84;70.27;95275.31;4960846;28;20185;-79
2022/11/08 07:58:08;;;;;;;2.80;1.90;;;;;;;10.00;69.74;95279.00;4960434;28;20268;-79
2022/11/08 08:00:35;;;;;;;2.90;1.53;;;;;;;10.12;69.00;95283.78;4956103;28;20234;-79
2022/11/08 08:03:01;;;;;;;4.40;1.73;;;;;;;10.41;68.52;95282.72;4949522;28;20707;-79
2022/11/08 08:05:28;;;;;;;4.67;1.80;;;;;;;10.31;68.48;95287.19;4948899;28;20219;-82
2022/11/08 08:07:58;;;;;;;2.60;1.63;;;;;;;10.42;67.93;95280.00;4968223;28;20185;-80
2022/11/08 08:10:24;;;;;;;3.70;1.50;;;;;;;10.54;68.10;95290.09;4969954;28;20195;-79
2022/11/08 08:12:49;;;;;;;1.83;1.50;;;;;;;10.28;68.45;95280.53;4982873;28;20181;-80
2022/11/08 08:15:14;;;;;;;2.57;1.50;;;;;;;10.39;67.62;95277.69;4969514;28;20244;-80
2022/11/08 08:17:40;;;;;;;1.43;1.17;;;;;;;10.34;67.77;95279.94;4969429;28;20204;-79
2022/11/08 08:20:07;;;;;;;1.83;1.50;;;;;;;10.17;68.38;95288.53;4955526;28;20188;-79
2022/11/08 08:22:32;;;;;;;1.90;1.50;;;;;;;10.33;68.22;95295.63;4947182;28;20571;-80
2022/11/08 08:24:57;;;;;;;2.33;1.30;;;;;;;10.27;68.14;95285.88;4962531;28;20193;-80
2022/11/08 08:27:22;;;;;;;2.00;1.43;;;;;;;10.34;68.50;95286.91;4969087;28;20192;-79
2022/11/08 08:29:48;;;;;;;2.57;1.47;;;;;;;10.40;68.29;95288.88;4976179;28;20216;-80
2022/11/08 08:32:13;;;;;;;1.80;1.40;;;;;;;10.43;68.01;95292.00;4983317;28;20200;-79
2022/11/08 08:34:39;;;;;;;2.27;1.40;;;;;;;10.49;67.46;95290.56;4992831;28;20256;-79
2022/11/08 08:37:04;;;;;;;2.80;1.70;;;;;;;10.37;68.26;95292.59;5000005;28;20217;-79
2022/11/08 08:39:29;;;;;;;2.43;1.67;;;;;;;10.41;68.03;95293.91;5007769;28;20201;-79
2022/11/08 08:41:55;;;;;;;2.47;1.30;;;;;;;10.54;67.50;95300.50;4994821;28;20219;-79
2022/11/08 08:44:20;;;;;;;3.70;1.57;;;;;;;10.50;67.87;95310.34;4987400;28;20193;-79
2022/11/08 08:46:45;;;;;;;1.90;1.33;;;;;;;10.51;68.00;95314.56;4970436;28;20189;-79
2022/11/08 08:49:10;;;;;;;2.77;1.57;;;;;;;10.37;68.69;95318.56;4955943;28;20600;-80
2022/11/08 08:51:36;;;;;;;3.23;2.20;;;;;;;10.35;68.42;95328.28;4981798;28;20291;-81
2022/11/08 08:54:01;;;;;;;31.83;19.77;;;;;;;10.33;68.45;95321.59;4975203;28;20232;-81
2022/11/08 08:56:26;;;;;;;8.93;8.03;;;;;;;10.38;68.54;95324.56;4972329;28;20200;-80
2022/11/08 08:58:55;;;;;;;4.03;2.47;;;;;;;10.36;68.26;95319.53;4984240;28;20188;-81
2022/11/08 09:01:20;;;;;;;2.63;2.40;;;;;;;10.40;68.18;95320.84;4964550;28;20657;-81
2022/11/08 09:03:45;;;;;;;3.47;2.50;;;;;;;10.39;68.40;95321.00;4978388;28;20546;-81
2022/11/08 09:06:10;;;;;;;3.20;1.90;;;;;;;10.29;69.24;95315.91;4978319;28;20228;-80
2022/11/08 09:08:36;;;;;;;2.50;2.17;;;;;;;10.31;68.76;95326.94;4969058;28;20188;-81
2022/11/08 09:11:01;;;;;;;3.70;1.90;;;;;;;10.17;69.25;95337.84;4979587;28;20303;-81
2022/11/08 09:13:29;;;;;;;3.07;1.43;;;;;;;10.20;69.50;95342.72;4945804;28;20648;-81
2022/11/08 09:15:55;;;;;;;3.60;1.60;;;;;;;10.31;69.33;95334.72;4967878;28;20185;-81
2022/11/08 09:18:20;;;;;;;2.10;1.50;;;;;;;10.44;69.04;95336.94;4977196;28;20181;-81
2022/11/08 09:20:46;;;;;;;3.00;1.80;;;;;;;10.44;68.87;95334.34;4964339;28;20219;-81
2022/11/08 09:23:13;;;;;;;4.13;2.20;;;;;;;10.41;68.84;95332.03;4969454;28;20216;-80
2022/11/08 09:25:38;;;;;;;2.37;1.90;;;;;;;10.44;69.30;95335.16;4971752;28;20204;-80
2022/11/08 09:28:03;;;;;;;2.37;1.80;;;;;;;10.54;69.02;95331.66;4964605;28;20200;-80
2022/11/08 09:30:29;;;;;;;1.93;1.57;;;;;;;10.66;68.45;95327.81;4973218;28;20219;-80
2022/11/08 09:32:54;;;;;;;2.03;1.40;;;;;;;10.91;67.76;95334.78;4977187;28;20189;-79
2022/11/08 09:35:20;;;;;;;2.80;1.70;;;;;;;10.87;67.47;95340.44;4979439;28;20200;-80
2022/11/08 09:37:45;;;;;;;2.70;1.50;;;;;;;11.05;67.38;95333.41;4954439;28;20666;-80
2022/11/08 09:40:20;;;;;;;3.03;1.60;;;;;;;11.07;67.38;95336.66;4953712;28;20477;-79
2022/11/08 09:43:00;;;;;;;1.33;1.23;;;;;;;11.27;66.31;95332.81;4978225;28;20180;-80
2022/11/08 09:45:27;;;;;;;3.43;1.67;;;;;;;11.33;67.10;95336.59;4968631;28;20193;-80
2022/11/08 09:48:05;;;;;;;2.73;1.37;;;;;;;11.60;66.32;95332.94;4969361;28;20608;-80
2022/11/08 09:50:38;;;;;;;4.57;1.87;;;;;;;11.68;65.33;95334.75;4977003;28;20216;-81
2022/11/08 09:53:26;;;;;;;2.77;1.43;;;;;;;11.76;65.79;95337.38;4962380;28;20243;-81
2022/11/08 09:56:32;;;;;;;3.07;1.70;;;;;;;11.79;64.07;95332.66;4962080;28;20675;-80
2022/11/08 09:59:02;;;;;;;2.27;1.50;;;;;;;11.81;64.48;95333.31;4930586;29;20651;-81
2022/11/08 10:01:34;;;;;;;2.27;1.77;;;;;;;11.87;64.16;95324.06;4930605;29;20222;-80
2022/11/08 10:04:12;;;;;;;7.27;1.90;;;;;;;12.06;63.20;95323.75;4932607;29;20241;-80
2022/11/08 10:06:45;;;;;;;2.30;1.43;;;;;;;12.25;62.15;95327.00;4917253;29;20196;-80
2022/11/08 10:09:28;;;;;;;1.73;1.30;;;;;;;12.53;61.81;95323.09;4916645;29;20300;-81
2022/11/08 10:12:16;;;;;;;2.07;1.60;;;;;;;12.71;60.33;95317.69;4926869;29;20242;-81
2022/11/08 10:15:13;;;;;;;3.10;2.00;;;;;;;12.81;59.33;95309.69;4931663;29;20558;-80
2022/11/08 10:17:41;;;;;;;2.30;1.40;;;;;;;12.87;57.68;95311.63;4913807;29;20192;-81
2022/11/08 10:20:43;;;;;;;1.93;1.27;;;;;;;12.98;58.50;95316.47;4929239;29;20197;-80
2022/11/08 10:23:20;;;;;;;2.30;1.60;;;;;;;12.99;59.14;95318.13;4919753;29;20190;-80
2022/11/08 10:26:00;;;;;;;1.53;1.40;;;;;;;13.01;59.18;95321.38;4905101;29;20189;-81
2022/11/08 10:28:35;;;;;;;2.87;1.27;;;;;;;12.96;59.39;95321.03;4911080;29;20258;-81
2022/11/08 10:31:00;;;;;;;1.67;1.33;;;;;;;13.05;58.41;95317.44;4915623;29;20237;-81
2022/11/08 10:33:34;;;;;;;3.63;2.50;;;;;;;13.22;58.16;95321.63;4935359;28;20194;-81
2022/11/08 10:36:22;;;;;;;2.23;1.43;;;;;;;13.19;56.62;95313.31;4969616;28;20193;-81
2022/11/08 10:39:02;;;;;;;1.60;1.30;;;;;;;13.34;56.21;95303.84;4967116;28;20223;-81
2022/11/08 10:42:04;;;;;;;2.43;1.33;;;;;;;13.48;56.29;95305.72;4984422;28;20276;-81
2022/11/08 10:44:30;;;;;;;3.17;1.80;;;;;;;13.67;55.55;95298.44;4970560;28;20711;-81
2022/11/08 10:46:55;;;;;;;1.57;1.27;;;;;;;13.92;54.94;95304.31;4959070;28;20197;-81
2022/11/08 10:49:25;;;;;;;2.70;1.10;;;;;;;14.14;54.24;95300.88;4970061;28;20660;-81
2022/11/08 10:51:55;;;;;;;1.30;1.20;;;;;;;14.35;52.79;95301.03;4956566;28;20212;-81
2022/11/08 10:54:40;;;;;;;1.37;1.00;;;;;;;14.61;52.51;95297.25;4974619;28;20185;-82
2022/11/08 10:57:06;;;;;;;1.93;1.10;;;;;;;14.67;52.64;95297.34;4969093;28;20768;-81
2022/11/08 10:59:31;;;;;;;3.20;1.43;;;;;;;14.77;52.67;95301.50;4971898;28;20188;-81
2022/11/08 11:01:57;;;;;;;1.83;1.30;;;;;;;14.89;52.32;95295.63;4963909;28;20200;-81
2022/11/08 11:04:33;;;;;;;1.30;1.10;;;;;;;14.82;51.55;95289.50;4975039;28;20188;-80
2022/11/08 11:07:03;;;;;;;3.40;1.20;;;;;;;14.60;51.47;95291.19;4980392;28;20219;-80
2022/11/08 11:09:29;;;;;;;2.17;1.20;;;;;;;14.59;51.95;95288.78;4963173;28;20192;-77
2022/11/08 11:12:06;;;;;;;2.07;1.43;;;;;;;14.56;51.72;95281.28;4970133;28;20201;-80
2022/11/08 11:14:31;;;;;;;1.50;1.40;;;;;;;14.42;52.98;95291.50;4968248;28;21104;-80
2022/11/08 11:17:02;;;;;;;3.27;1.20;;;;;;;14.42;52.99;95291.50;4982915;28;20180;-81
2022/11/08 11:19:28;;;;;;;1.10;1.00;;;;;;;14.23;53.30;95291.19;4967366;28;20177;-80
2022/11/08 11:21:56;;;;;;;2.17;1.40;;;;;;;14.13;54.09;95281.81;4952927;28;20205;-80
2022/11/08 11:24:23;;;;;;;1.70;1.57;;;;;;;14.05;54.08;95289.69;4972575;28;20185;-80
2022/11/08 11:27:06;;;;;;;2.20;1.43;;;;;;;13.93;54.78;95291.06;4970762;28;20185;-80
2022/11/08 11:29:33;;;;;;;1.30;1.00;;;;;;;13.80;55.78;95285.63;4976774;28;20200;-80
2022/11/08 11:32:31;;;;;;;3.30;1.77;;;;;;;13.83;56.45;95285.28;4963782;28;20208;-80
2022/11/08 11:34:58;;;;;;;2.60;1.57;;;;;;;13.72;56.90;95281.28;4947971;28;20201;-80
2022/11/08 11:37:42;;;;;;;2.57;1.70;;;;;;;13.68;56.89;95279.97;4966453;28;20255;-79
2022/11/08 11:40:28;;;;;;;1.90;1.70;;;;;;;13.57;57.91;95283.81;4964912;28;20268;-80
2022/11/08 11:43:09;;;;;;;2.00;1.50;;;;;;;13.59;58.32;95297.47;4964864;28;20187;-80
2022/11/08 11:45:49;;;;;;;2.87;1.50;;;;;;;13.54;58.48;95299.81;4960001;28;20193;-80
2022/11/08 11:48:17;;;;;;;2.33;1.30;;;;;;;13.56;58.79;95290.00;4968981;28;20660;-79
2022/11/08 11:50:47;;;;;;;1.50;1.10;;;;;;;13.65;58.73;95289.97;4980401;28;20942;-80
2022/11/08 11:53:17;;;;;;;1.37;1.27;;;;;;;13.69;59.34;95281.59;4971066;28;20235;-80
2022/11/08 11:56:16;;;;;;;2.67;1.23;;;;;;;13.78;59.34;95287.59;4979500;28;20181;-81
2022/11/08 11:59:13;;;;;;;2.20;1.60;;;;;;;13.83;59.27;95287.88;4964342;28;20829;-80
2022/11/08 12:01:46;;;;;;;3.33;1.67;;;;;;;13.91;59.05;95280.00;4981967;28;20228;-81
2022/11/08 12:04:31;;;;;;;2.97;1.67;;;;;;;14.08;59.19;95280.69;4961750;28;20727;-81
2022/11/08 12:07:15;;;;;;;2.50;1.87;;;;;;;14.27;59.19;95269.75;4962411;28;20192;-81